Terminal Aerodrome Forecast
Issued by NWS Wilmington, OH

Current Version | Previous Version | Graphics & Text | Print | Product List | Glossary On
Versions: 1 2 3 4 5 6 7 8 9 10 11 12 13 14 15 16 17 18 19 20 21 22 23 24 25 26 27 28 29 30
000
FTUS41 KILN 191800 AAA
TAFCMH
TAF AMD
KCMH 191846Z 1919/2018 13005KT P6SM VCSH SCT006 BKN017
      TEMPO 1920/1923 5SM -SHRA
     FM200300 18003KT P6SM VCSH OVC012
     FM201300 16005KT P6SM VCSH BKN025=

USA.gov is the U.S. government's official web portal to all federal, state and local government web resources and services.